sensor_id;sensor_type;location;lat;lon;timestamp;temperature;humidity
16408;DHT22;8313;49.894;8.084;2023-03-11T00:01:14;3.70;99.90
16408;DHT22;8313;49.894;8.084;2023-03-11T00:03:40;3.70;99.90
16408;DHT22;8313;49.894;8.084;2023-03-11T00:06:06;3.70;99.90
16408;DHT22;8313;49.894;8.084;2023-03-11T00:08:31;3.30;99.90
16408;DHT22;8313;49.894;8.084;2023-03-11T00:10:58;3.40;99.90
16408;DHT22;8313;49.894;8.084;2023-03-11T00:13:25;3.30;99.90
16408;DHT22;8313;49.894;8.084;2023-03-11T00:15:53;3.40;99.90
16408;DHT22;8313;49.894;8.084;2023-03-11T00:18:25;3.30;99.90
16408;DHT22;8313;49.894;8.084;2023-03-11T00:20:53;3.20;99.90
16408;DHT22;8313;49.894;8.084;2023-03-11T00:23:19;3.20;99.90
16408;DHT22;8313;49.894;8.084;2023-03-11T00:25:45;3.00;99.90
16408;DHT22;8313;49.894;8.084;2023-03-11T00:28:12;2.90;99.90
16408;DHT22;8313;49.894;8.084;2023-03-11T00:30:40;2.90;99.90
16408;DHT22;8313;49.894;8.084;2023-03-11T00:33:07;2.70;99.90
16408;DHT22;8313;49.894;8.084;2023-03-11T00:35:34;2.70;99.90
16408;DHT22;8313;49.894;8.084;2023-03-11T00:38:04;2.70;99.90
16408;DHT22;8313;49.894;8.084;2023-03-11T00:40:33;2.50;99.90
16408;DHT22;8313;49.894;8.084;2023-03-11T00:43:01;2.50;99.90
16408;DHT22;8313;49.894;8.084;2023-03-11T00:45:28;2.60;99.90
16408;DHT22;8313;49.894;8.084;2023-03-11T00:47:54;2.60;99.90
16408;DHT22;8313;49.894;8.084;2023-03-11T00:50:29;2.60;99.90
16408;DHT22;8313;49.894;8.084;2023-03-11T00:52:55;2.50;99.90
16408;DHT22;8313;49.894;8.084;2023-03-11T00:55:23;2.70;99.90
16408;DHT22;8313;49.894;8.084;2023-03-11T00:57:55;2.60;99.90
16408;DHT22;8313;49.894;8.084;2023-03-11T01:00:23;2.60;99.90
16408;DHT22;8313;49.894;8.084;2023-03-11T01:02:50;2.70;99.90
16408;DHT22;8313;49.894;8.084;2023-03-11T01:05:19;2.70;99.90
16408;DHT22;8313;49.894;8.084;2023-03-11T01:07:45;2.80;99.90
16408;DHT22;8313;49.894;8.084;2023-03-11T01:10:11;2.60;99.90
16408;DHT22;8313;49.894;8.084;2023-03-11T01:12:37;2.40;99.90
16408;DHT22;8313;49.894;8.084;2023-03-11T01:15:03;2.60;99.90
16408;DHT22;8313;49.894;8.084;2023-03-11T01:17:29;2.60;99.90
16408;DHT22;8313;49.894;8.084;2023-03-11T01:19:55;2.60;99.90
16408;DHT22;8313;49.894;8.084;2023-03-11T01:22:20;2.60;99.90
16408;DHT22;8313;49.894;8.084;2023-03-11T01:24:46;2.50;99.90
16408;DHT22;8313;49.894;8.084;2023-03-11T01:27:12;2.50;99.90
16408;DHT22;8313;49.894;8.084;2023-03-11T01:29:37;2.50;99.90
16408;DHT22;8313;49.894;8.084;2023-03-11T01:32:03;2.70;99.90
16408;DHT22;8313;49.894;8.084;2023-03-11T01:34:29;2.80;99.90
16408;DHT22;8313;49.894;8.084;2023-03-11T01:36:57;2.80;99.90
16408;DHT22;8313;49.894;8.084;2023-03-11T01:39:23;3.00;99.90
16408;DHT22;8313;49.894;8.084;2023-03-11T01:41:48;3.00;99.90
16408;DHT22;8313;49.894;8.084;2023-03-11T01:44:14;2.80;99.90
16408;DHT22;8313;49.894;8.084;2023-03-11T01:49:23;2.60;99.90
16408;DHT22;8313;49.894;8.084;2023-03-11T01:51:59;2.50;99.90
16408;DHT22;8313;49.894;8.084;2023-03-11T01:54:33;2.50;99.90
16408;DHT22;8313;49.894;8.084;2023-03-11T01:57:01;2.60;99.90
16408;DHT22;8313;49.894;8.084;2023-03-11T01:59:32;2.60;99.90
16408;DHT22;8313;49.894;8.084;2023-03-11T02:02:05;2.60;99.90
16408;DHT22;8313;49.894;8.084;2023-03-11T02:04:35;2.40;99.90
16408;DHT22;8313;49.894;8.084;2023-03-11T02:07:02;2.50;99.90
16408;DHT22;8313;49.894;8.084;2023-03-11T02:09:29;2.50;99.90
16408;DHT22;8313;49.894;8.084;2023-03-11T02:11:56;2.60;99.90
16408;DHT22;8313;49.894;8.084;2023-03-11T02:14:24;2.80;99.90
16408;DHT22;8313;49.894;8.084;2023-03-11T02:16:52;2.80;99.90
16408;DHT22;8313;49.894;8.084;2023-03-11T02:21:50;2.70;99.90
16408;DHT22;8313;49.894;8.084;2023-03-11T02:27:15;2.60;99.90
16408;DHT22;8313;49.894;8.084;2023-03-11T02:29:41;2.60;99.90
16408;DHT22;8313;49.894;8.084;2023-03-11T02:32:08;2.50;99.90
16408;DHT22;8313;49.894;8.084;2023-03-11T02:34:39;2.60;99.90
16408;DHT22;8313;49.894;8.084;2023-03-11T02:37:07;2.70;99.90
16408;DHT22;8313;49.894;8.084;2023-03-11T02:39:37;2.60;99.90
16408;DHT22;8313;49.894;8.084;2023-03-11T02:42:12;2.60;99.90
16408;DHT22;8313;49.894;8.084;2023-03-11T02:44:43;2.70;99.90
16408;DHT22;8313;49.894;8.084;2023-03-11T02:47:09;2.60;99.90
16408;DHT22;8313;49.894;8.084;2023-03-11T02:49:36;2.60;99.90
16408;DHT22;8313;49.894;8.084;2023-03-11T02:52:02;2.60;99.90
16408;DHT22;8313;49.894;8.084;2023-03-11T02:54:28;2.60;99.90
16408;DHT22;8313;49.894;8.084;2023-03-11T02:56:55;2.60;99.90
16408;DHT22;8313;49.894;8.084;2023-03-11T02:59:21;2.70;99.90
16408;DHT22;8313;49.894;8.084;2023-03-11T03:01:47;2.70;99.90
16408;DHT22;8313;49.894;8.084;2023-03-11T03:04:13;2.50;99.90
16408;DHT22;8313;49.894;8.084;2023-03-11T03:06:39;2.40;99.90
16408;DHT22;8313;49.894;8.084;2023-03-11T03:09:05;2.40;99.90
16408;DHT22;8313;49.894;8.084;2023-03-11T03:11:31;2.50;99.90
16408;DHT22;8313;49.894;8.084;2023-03-11T03:13:57;2.60;99.90
16408;DHT22;8313;49.894;8.084;2023-03-11T03:16:23;2.40;99.90
16408;DHT22;8313;49.894;8.084;2023-03-11T03:18:48;2.40;99.90
16408;DHT22;8313;49.894;8.084;2023-03-11T03:21:14;2.50;99.90
16408;DHT22;8313;49.894;8.084;2023-03-11T03:23:40;2.60;99.90
16408;DHT22;8313;49.894;8.084;2023-03-11T03:26:06;2.60;99.90
16408;DHT22;8313;49.894;8.084;2023-03-11T03:28:35;2.70;99.90
16408;DHT22;8313;49.894;8.084;2023-03-11T03:31:06;2.80;99.90
16408;DHT22;8313;49.894;8.084;2023-03-11T03:33:32;2.70;99.90
16408;DHT22;8313;49.894;8.084;2023-03-11T03:35:57;2.80;99.90
16408;DHT22;8313;49.894;8.084;2023-03-11T03:38:27;2.90;99.90
16408;DHT22;8313;49.894;8.084;2023-03-11T03:40:53;3.10;99.90
16408;DHT22;8313;49.894;8.084;2023-03-11T03:43:20;3.10;99.90
16408;DHT22;8313;49.894;8.084;2023-03-11T03:45:57;3.00;99.90
16408;DHT22;8313;49.894;8.084;2023-03-11T03:48:26;3.10;99.90
16408;DHT22;8313;49.894;8.084;2023-03-11T03:50:52;3.10;99.90
16408;DHT22;8313;49.894;8.084;2023-03-11T03:53:18;3.20;99.90
16408;DHT22;8313;49.894;8.084;2023-03-11T03:55:44;3.20;99.90
16408;DHT22;8313;49.894;8.084;2023-03-11T03:58:10;3.30;99.90
16408;DHT22;8313;49.894;8.084;2023-03-11T04:00:36;3.20;99.90
16408;DHT22;8313;49.894;8.084;2023-03-11T04:03:02;3.20;99.90
16408;DHT22;8313;49.894;8.084;2023-03-11T04:05:43;3.30;99.90
16408;DHT22;8313;49.894;8.084;2023-03-11T04:08:10;3.20;99.90
16408;DHT22;8313;49.894;8.084;2023-03-11T04:10:36;3.20;99.90
16408;DHT22;8313;49.894;8.084;2023-03-11T04:13:03;3.10;99.90
16408;DHT22;8313;49.894;8.084;2023-03-11T04:15:28;3.10;99.90
16408;DHT22;8313;49.894;8.084;2023-03-11T04:17:54;3.10;99.90
16408;DHT22;8313;49.894;8.084;2023-03-11T04:20:20;3.00;99.90
16408;DHT22;8313;49.894;8.084;2023-03-11T04:22:48;3.00;99.90
16408;DHT22;8313;49.894;8.084;2023-03-11T04:25:15;3.00;99.90
16408;DHT22;8313;49.894;8.084;2023-03-11T04:27:41;3.10;99.90
16408;DHT22;8313;49.894;8.084;2023-03-11T04:30:11;3.10;99.90
16408;DHT22;8313;49.894;8.084;2023-03-11T04:32:37;3.20;99.90
16408;DHT22;8313;49.894;8.084;2023-03-11T04:35:04;3.20;99.90
16408;DHT22;8313;49.894;8.084;2023-03-11T04:37:30;3.00;99.90
16408;DHT22;8313;49.894;8.084;2023-03-11T04:39:56;2.80;99.90
16408;DHT22;8313;49.894;8.084;2023-03-11T04:42:22;2.90;99.90
16408;DHT22;8313;49.894;8.084;2023-03-11T04:44:48;3.00;99.90
16408;DHT22;8313;49.894;8.084;2023-03-11T04:47:14;3.00;99.90
16408;DHT22;8313;49.894;8.084;2023-03-11T04:49:40;3.10;99.90
16408;DHT22;8313;49.894;8.084;2023-03-11T04:52:05;3.00;99.90
16408;DHT22;8313;49.894;8.084;2023-03-11T04:54:31;2.90;99.90
16408;DHT22;8313;49.894;8.084;2023-03-11T04:56:57;2.90;99.90
16408;DHT22;8313;49.894;8.084;2023-03-11T04:59:23;3.00;99.90
16408;DHT22;8313;49.894;8.084;2023-03-11T05:01:50;3.00;99.90
16408;DHT22;8313;49.894;8.084;2023-03-11T05:04:16;3.10;99.90
16408;DHT22;8313;49.894;8.084;2023-03-11T05:06:42;3.20;99.90
16408;DHT22;8313;49.894;8.084;2023-03-11T05:09:08;3.10;99.90
16408;DHT22;8313;49.894;8.084;2023-03-11T05:11:36;3.10;99.90
16408;DHT22;8313;49.894;8.084;2023-03-11T05:14:02;3.10;99.90
16408;DHT22;8313;49.894;8.084;2023-03-11T05:16:28;2.90;99.90
16408;DHT22;8313;49.894;8.084;2023-03-11T05:18:54;2.90;99.90
16408;DHT22;8313;49.894;8.084;2023-03-11T05:21:21;2.90;99.90
16408;DHT22;8313;49.894;8.084;2023-03-11T05:23:47;2.80;99.90
16408;DHT22;8313;49.894;8.084;2023-03-11T05:26:13;2.80;99.90
16408;DHT22;8313;49.894;8.084;2023-03-11T05:28:41;3.00;99.90
16408;DHT22;8313;49.894;8.084;2023-03-11T05:31:09;3.00;99.90
16408;DHT22;8313;49.894;8.084;2023-03-11T05:33:36;3.10;99.90
16408;DHT22;8313;49.894;8.084;2023-03-11T05:36:08;3.00;99.90
16408;DHT22;8313;49.894;8.084;2023-03-11T05:38:35;2.90;99.90
16408;DHT22;8313;49.894;8.084;2023-03-11T05:41:01;2.50;99.90
16408;DHT22;8313;49.894;8.084;2023-03-11T05:43:27;2.50;99.90
16408;DHT22;8313;49.894;8.084;2023-03-11T05:45:53;2.50;99.90
16408;DHT22;8313;49.894;8.084;2023-03-11T05:48:19;2.20;99.90
16408;DHT22;8313;49.894;8.084;2023-03-11T05:50:45;2.30;99.90
16408;DHT22;8313;49.894;8.084;2023-03-11T05:53:10;2.40;99.90
16408;DHT22;8313;49.894;8.084;2023-03-11T05:55:36;2.30;99.90
16408;DHT22;8313;49.894;8.084;2023-03-11T05:58:02;2.30;99.90
16408;DHT22;8313;49.894;8.084;2023-03-11T06:00:28;2.20;99.90
16408;DHT22;8313;49.894;8.084;2023-03-11T06:02:55;2.20;99.90
16408;DHT22;8313;49.894;8.084;2023-03-11T06:05:21;2.10;99.90
16408;DHT22;8313;49.894;8.084;2023-03-11T06:07:49;1.90;99.90
16408;DHT22;8313;49.894;8.084;2023-03-11T06:10:15;2.00;99.90
16408;DHT22;8313;49.894;8.084;2023-03-11T06:12:41;1.90;99.90
16408;DHT22;8313;49.894;8.084;2023-03-11T06:15:12;1.80;99.90
16408;DHT22;8313;49.894;8.084;2023-03-11T06:17:39;1.90;99.90
16408;DHT22;8313;49.894;8.084;2023-03-11T06:20:06;2.00;99.90
16408;DHT22;8313;49.894;8.084;2023-03-11T06:22:32;2.10;99.90
16408;DHT22;8313;49.894;8.084;2023-03-11T06:24:58;1.80;99.90
16408;DHT22;8313;49.894;8.084;2023-03-11T06:27:24;1.80;99.90
16408;DHT22;8313;49.894;8.084;2023-03-11T06:29:53;1.80;99.90
16408;DHT22;8313;49.894;8.084;2023-03-11T06:32:23;1.90;99.90
16408;DHT22;8313;49.894;8.084;2023-03-11T06:34:50;1.80;99.90
16408;DHT22;8313;49.894;8.084;2023-03-11T06:37:16;1.90;99.90
16408;DHT22;8313;49.894;8.084;2023-03-11T06:39:42;2.00;99.90
16408;DHT22;8313;49.894;8.084;2023-03-11T06:42:12;1.90;99.90
16408;DHT22;8313;49.894;8.084;2023-03-11T06:44:38;1.80;99.90
16408;DHT22;8313;49.894;8.084;2023-03-11T06:47:04;1.70;99.90
16408;DHT22;8313;49.894;8.084;2023-03-11T06:49:30;1.80;99.90
16408;DHT22;8313;49.894;8.084;2023-03-11T06:51:55;1.90;99.90
16408;DHT22;8313;49.894;8.084;2023-03-11T06:54:22;1.80;99.90
16408;DHT22;8313;49.894;8.084;2023-03-11T06:56:48;1.80;99.90
16408;DHT22;8313;49.894;8.084;2023-03-11T06:59:14;2.00;99.90
16408;DHT22;8313;49.894;8.084;2023-03-11T07:01:40;2.00;99.90
16408;DHT22;8313;49.894;8.084;2023-03-11T07:04:08;1.90;99.90
16408;DHT22;8313;49.894;8.084;2023-03-11T07:06:37;1.80;99.90
16408;DHT22;8313;49.894;8.084;2023-03-11T07:09:11;1.80;99.90
16408;DHT22;8313;49.894;8.084;2023-03-11T07:11:41;1.80;99.90
16408;DHT22;8313;49.894;8.084;2023-03-11T07:14:14;1.90;99.90
16408;DHT22;8313;49.894;8.084;2023-03-11T07:16:45;1.90;99.90
16408;DHT22;8313;49.894;8.084;2023-03-11T07:19:19;2.00;99.90
16408;DHT22;8313;49.894;8.084;2023-03-11T07:21:44;1.80;99.90
16408;DHT22;8313;49.894;8.084;2023-03-11T07:24:12;1.90;99.90
16408;DHT22;8313;49.894;8.084;2023-03-11T07:26:38;1.90;99.90
16408;DHT22;8313;49.894;8.084;2023-03-11T07:29:04;2.10;99.90
16408;DHT22;8313;49.894;8.084;2023-03-11T07:31:32;2.10;99.90
16408;DHT22;8313;49.894;8.084;2023-03-11T07:33:59;2.10;99.90
16408;DHT22;8313;49.894;8.084;2023-03-11T07:36:25;2.10;99.90
16408;DHT22;8313;49.894;8.084;2023-03-11T07:38:55;2.20;99.90
16408;DHT22;8313;49.894;8.084;2023-03-11T07:41:24;2.30;99.90
16408;DHT22;8313;49.894;8.084;2023-03-11T07:43:53;2.40;99.90
16408;DHT22;8313;49.894;8.084;2023-03-11T07:46:20;2.40;99.90
16408;DHT22;8313;49.894;8.084;2023-03-11T07:48:47;2.50;99.90
16408;DHT22;8313;49.894;8.084;2023-03-11T07:51:19;2.60;99.90
16408;DHT22;8313;49.894;8.084;2023-03-11T07:53:45;2.70;99.90
16408;DHT22;8313;49.894;8.084;2023-03-11T07:56:12;2.60;99.90
16408;DHT22;8313;49.894;8.084;2023-03-11T07:58:38;2.60;99.90
16408;DHT22;8313;49.894;8.084;2023-03-11T08:01:10;2.70;99.90
16408;DHT22;8313;49.894;8.084;2023-03-11T08:03:36;2.80;99.90
16408;DHT22;8313;49.894;8.084;2023-03-11T08:06:09;2.90;99.90
16408;DHT22;8313;49.894;8.084;2023-03-11T08:08:35;3.10;99.90
16408;DHT22;8313;49.894;8.084;2023-03-11T08:11:02;3.10;99.90
16408;DHT22;8313;49.894;8.084;2023-03-11T08:13:28;3.10;99.90
16408;DHT22;8313;49.894;8.084;2023-03-11T08:15:54;3.10;99.90
16408;DHT22;8313;49.894;8.084;2023-03-11T08:18:19;3.10;99.90
16408;DHT22;8313;49.894;8.084;2023-03-11T08:20:45;3.10;99.90
16408;DHT22;8313;49.894;8.084;2023-03-11T08:23:11;3.10;99.90
16408;DHT22;8313;49.894;8.084;2023-03-11T08:25:42;3.10;99.90
16408;DHT22;8313;49.894;8.084;2023-03-11T08:28:08;3.20;99.90
16408;DHT22;8313;49.894;8.084;2023-03-11T08:30:34;3.40;99.90
16408;DHT22;8313;49.894;8.084;2023-03-11T08:33:00;3.40;99.90
16408;DHT22;8313;49.894;8.084;2023-03-11T08:35:25;3.60;99.90
16408;DHT22;8313;49.894;8.084;2023-03-11T08:37:51;3.70;99.90
16408;DHT22;8313;49.894;8.084;2023-03-11T08:40:17;3.70;99.90
16408;DHT22;8313;49.894;8.084;2023-03-11T08:42:43;3.70;99.90
16408;DHT22;8313;49.894;8.084;2023-03-11T08:45:10;3.70;99.90
16408;DHT22;8313;49.894;8.084;2023-03-11T08:47:37;3.80;99.90
16408;DHT22;8313;49.894;8.084;2023-03-11T08:50:06;3.90;99.90
16408;DHT22;8313;49.894;8.084;2023-03-11T08:52:32;3.90;99.90
16408;DHT22;8313;49.894;8.084;2023-03-11T08:54:58;4.00;99.90
16408;DHT22;8313;49.894;8.084;2023-03-11T08:57:23;4.00;99.90
16408;DHT22;8313;49.894;8.084;2023-03-11T08:59:49;4.00;99.90
16408;DHT22;8313;49.894;8.084;2023-03-11T09:02:15;4.00;99.90
16408;DHT22;8313;49.894;8.084;2023-03-11T09:04:41;4.00;99.90
16408;DHT22;8313;49.894;8.084;2023-03-11T09:07:06;4.10;99.90
16408;DHT22;8313;49.894;8.084;2023-03-11T09:09:32;4.10;99.90
16408;DHT22;8313;49.894;8.084;2023-03-11T09:11:57;4.20;99.90
16408;DHT22;8313;49.894;8.084;2023-03-11T09:14:23;4.30;99.90
16408;DHT22;8313;49.894;8.084;2023-03-11T09:16:49;4.20;99.90
16408;DHT22;8313;49.894;8.084;2023-03-11T09:19:15;4.20;99.90
16408;DHT22;8313;49.894;8.084;2023-03-11T09:21:40;4.20;99.90
16408;DHT22;8313;49.894;8.084;2023-03-11T09:24:06;4.10;99.90
16408;DHT22;8313;49.894;8.084;2023-03-11T09:26:32;4.00;99.90
16408;DHT22;8313;49.894;8.084;2023-03-11T09:28:57;4.00;99.90
16408;DHT22;8313;49.894;8.084;2023-03-11T09:31:23;4.10;99.90
16408;DHT22;8313;49.894;8.084;2023-03-11T09:33:49;4.10;99.90
16408;DHT22;8313;49.894;8.084;2023-03-11T09:36:19;4.00;99.90
16408;DHT22;8313;49.894;8.084;2023-03-11T09:38:45;4.10;99.90
16408;DHT22;8313;49.894;8.084;2023-03-11T09:50:03;4.20;99.90
16408;DHT22;8313;49.894;8.084;2023-03-11T09:52:55;4.30;99.90
16408;DHT22;8313;49.894;8.084;2023-03-11T09:55:47;4.50;99.90
16408;DHT22;8313;49.894;8.084;2023-03-11T10:00:39;4.30;99.90
16408;DHT22;8313;49.894;8.084;2023-03-11T10:03:11;4.30;99.90
16408;DHT22;8313;49.894;8.084;2023-03-11T10:05:40;4.50;99.90
16408;DHT22;8313;49.894;8.084;2023-03-11T10:08:18;4.60;99.90
16408;DHT22;8313;49.894;8.084;2023-03-11T10:10:57;4.70;99.90
16408;DHT22;8313;49.894;8.084;2023-03-11T10:13:33;4.80;99.90
16408;DHT22;8313;49.894;8.084;2023-03-11T10:16:27;5.00;99.90
16408;DHT22;8313;49.894;8.084;2023-03-11T10:19:04;4.80;99.90
16408;DHT22;8313;49.894;8.084;2023-03-11T10:21:35;4.50;99.90
16408;DHT22;8313;49.894;8.084;2023-03-11T10:24:41;4.60;99.90
16408;DHT22;8313;49.894;8.084;2023-03-11T10:27:16;4.70;99.90
16408;DHT22;8313;49.894;8.084;2023-03-11T10:30:05;4.80;99.90
16408;DHT22;8313;49.894;8.084;2023-03-11T10:33:19;4.90;99.90
16408;DHT22;8313;49.894;8.084;2023-03-11T10:35:36;4.80;99.90
16408;DHT22;8313;49.894;8.084;2023-03-11T10:38:27;4.60;99.90
16408;DHT22;8313;49.894;8.084;2023-03-11T10:40:57;4.60;99.90
16408;DHT22;8313;49.894;8.084;2023-03-11T10:43:26;4.50;99.90
16408;DHT22;8313;49.894;8.084;2023-03-11T10:45:53;4.50;99.90
16408;DHT22;8313;49.894;8.084;2023-03-11T10:48:20;4.60;99.90
16408;DHT22;8313;49.894;8.084;2023-03-11T10:53:28;4.80;99.90
16408;DHT22;8313;49.894;8.084;2023-03-11T10:55:56;4.80;99.90
16408;DHT22;8313;49.894;8.084;2023-03-11T10:58:31;4.80;99.90
16408;DHT22;8313;49.894;8.084;2023-03-11T11:01:13;4.80;99.90
16408;DHT22;8313;49.894;8.084;2023-03-11T11:03:47;4.80;99.90
16408;DHT22;8313;49.894;8.084;2023-03-11T11:06:35;4.80;99.90
16408;DHT22;8313;49.894;8.084;2023-03-11T11:09:16;4.80;99.90
16408;DHT22;8313;49.894;8.084;2023-03-11T11:12:11;4.90;99.90
16408;DHT22;8313;49.894;8.084;2023-03-11T11:14:56;4.80;99.90
16408;DHT22;8313;49.894;8.084;2023-03-11T11:17:29;4.80;99.90
16408;DHT22;8313;49.894;8.084;2023-03-11T11:19:56;4.90;99.90
16408;DHT22;8313;49.894;8.084;2023-03-11T11:22:24;4.80;99.90
16408;DHT22;8313;49.894;8.084;2023-03-11T11:24:52;4.90;99.90
16408;DHT22;8313;49.894;8.084;2023-03-11T11:27:26;5.00;99.90
16408;DHT22;8313;49.894;8.084;2023-03-11T11:30:21;4.90;99.90
16408;DHT22;8313;49.894;8.084;2023-03-11T11:32:48;4.80;99.90
16408;DHT22;8313;49.894;8.084;2023-03-11T11:35:19;4.90;99.90
16408;DHT22;8313;49.894;8.084;2023-03-11T11:37:58;4.90;99.90
16408;DHT22;8313;49.894;8.084;2023-03-11T11:40:32;4.90;99.90
16408;DHT22;8313;49.894;8.084;2023-03-11T11:43:04;5.00;99.90
16408;DHT22;8313;49.894;8.084;2023-03-11T11:50:52;4.90;99.90
16408;DHT22;8313;49.894;8.084;2023-03-11T11:56:03;5.00;99.90
16408;DHT22;8313;49.894;8.084;2023-03-11T11:58:29;5.10;99.90
16408;DHT22;8313;49.894;8.084;2023-03-11T12:01:15;5.10;99.90
16408;DHT22;8313;49.894;8.084;2023-03-11T12:09:27;5.10;99.90
16408;DHT22;8313;49.894;8.084;2023-03-11T12:15:00;5.10;99.90
16408;DHT22;8313;49.894;8.084;2023-03-11T12:17:28;5.20;99.90
16408;DHT22;8313;49.894;8.084;2023-03-11T12:20:04;5.20;99.90
16408;DHT22;8313;49.894;8.084;2023-03-11T12:30:41;5.40;99.90
16408;DHT22;8313;49.894;8.084;2023-03-11T12:33:18;5.30;99.90
16408;DHT22;8313;49.894;8.084;2023-03-11T12:35:52;5.30;99.90
16408;DHT22;8313;49.894;8.084;2023-03-11T12:41:11;5.50;99.90
16408;DHT22;8313;49.894;8.084;2023-03-11T12:46:16;5.50;99.90
16408;DHT22;8313;49.894;8.084;2023-03-11T12:53:51;5.50;99.90
16408;DHT22;8313;49.894;8.084;2023-03-11T12:59:17;5.60;99.90
16408;DHT22;8313;49.894;8.084;2023-03-11T13:01:52;5.60;99.90
16408;DHT22;8313;49.894;8.084;2023-03-11T13:04:41;5.60;99.90
16408;DHT22;8313;49.894;8.084;2023-03-11T13:07:33;5.70;99.90
16408;DHT22;8313;49.894;8.084;2023-03-11T13:12:51;5.60;99.90
16408;DHT22;8313;49.894;8.084;2023-03-11T13:17:59;5.70;99.90
16408;DHT22;8313;49.894;8.084;2023-03-11T13:23:19;5.50;99.90
16408;DHT22;8313;49.894;8.084;2023-03-11T13:28:42;5.50;99.90
16408;DHT22;8313;49.894;8.084;2023-03-11T13:31:21;5.40;99.90
16408;DHT22;8313;49.894;8.084;2023-03-11T13:33:55;5.40;99.90
16408;DHT22;8313;49.894;8.084;2023-03-11T13:41:59;5.60;99.90
16408;DHT22;8313;49.894;8.084;2023-03-11T13:44:34;5.70;99.90
16408;DHT22;8313;49.894;8.084;2023-03-11T13:47:12;5.70;99.90
16408;DHT22;8313;49.894;8.084;2023-03-11T13:52:25;5.70;99.90
16408;DHT22;8313;49.894;8.084;2023-03-11T13:57:32;5.70;99.90
16408;DHT22;8313;49.894;8.084;2023-03-11T14:00:20;5.80;99.90
16408;DHT22;8313;49.894;8.084;2023-03-11T14:02:50;5.80;99.90
16408;DHT22;8313;49.894;8.084;2023-03-11T14:05:28;5.80;99.90
16408;DHT22;8313;49.894;8.084;2023-03-11T14:07:54;5.70;99.90
16408;DHT22;8313;49.894;8.084;2023-03-11T14:10:28;5.70;99.90
16408;DHT22;8313;49.894;8.084;2023-03-11T14:13:15;5.80;99.90
16408;DHT22;8313;49.894;8.084;2023-03-11T14:15:56;5.90;99.90
16408;DHT22;8313;49.894;8.084;2023-03-11T14:21:00;5.80;99.90
16408;DHT22;8313;49.894;8.084;2023-03-11T14:23:29;5.80;99.90
16408;DHT22;8313;49.894;8.084;2023-03-11T14:26:04;5.90;99.90
16408;DHT22;8313;49.894;8.084;2023-03-11T14:28:34;5.90;99.90
16408;DHT22;8313;49.894;8.084;2023-03-11T14:31:02;6.00;99.90
16408;DHT22;8313;49.894;8.084;2023-03-11T14:33:28;5.90;99.90
16408;DHT22;8313;49.894;8.084;2023-03-11T14:35:59;6.00;99.90
16408;DHT22;8313;49.894;8.084;2023-03-11T14:38:29;6.00;99.90
16408;DHT22;8313;49.894;8.084;2023-03-11T14:41:14;6.00;99.90
16408;DHT22;8313;49.894;8.084;2023-03-11T14:43:43;6.00;99.90
16408;DHT22;8313;49.894;8.084;2023-03-11T14:46:17;6.00;99.90
16408;DHT22;8313;49.894;8.084;2023-03-11T14:48:44;5.90;99.90
16408;DHT22;8313;49.894;8.084;2023-03-11T14:51:20;5.90;99.90
16408;DHT22;8313;49.894;8.084;2023-03-11T14:54:13;6.10;99.90
16408;DHT22;8313;49.894;8.084;2023-03-11T14:56:44;6.10;99.90
16408;DHT22;8313;49.894;8.084;2023-03-11T14:59:22;6.20;99.90
16408;DHT22;8313;49.894;8.084;2023-03-11T15:01:54;6.20;99.90
16408;DHT22;8313;49.894;8.084;2023-03-11T15:04:27;6.20;99.90
16408;DHT22;8313;49.894;8.084;2023-03-11T15:06:57;6.30;99.90
16408;DHT22;8313;49.894;8.084;2023-03-11T15:09:24;6.30;99.90
16408;DHT22;8313;49.894;8.084;2023-03-11T15:11:54;6.30;99.90
16408;DHT22;8313;49.894;8.084;2023-03-11T15:14:27;6.30;99.90
16408;DHT22;8313;49.894;8.084;2023-03-11T15:16:54;6.30;99.90
16408;DHT22;8313;49.894;8.084;2023-03-11T15:19:30;6.20;99.90
16408;DHT22;8313;49.894;8.084;2023-03-11T15:21:58;6.20;99.90
16408;DHT22;8313;49.894;8.084;2023-03-11T15:24:27;6.20;99.90
16408;DHT22;8313;49.894;8.084;2023-03-11T15:27:02;6.20;99.90
16408;DHT22;8313;49.894;8.084;2023-03-11T15:29:30;6.20;99.90
16408;DHT22;8313;49.894;8.084;2023-03-11T15:31:56;6.10;99.90
16408;DHT22;8313;49.894;8.084;2023-03-11T15:34:28;6.10;99.90
16408;DHT22;8313;49.894;8.084;2023-03-11T15:36:56;6.30;99.90
16408;DHT22;8313;49.894;8.084;2023-03-11T15:44:28;6.30;99.90
16408;DHT22;8313;49.894;8.084;2023-03-11T15:46:55;6.30;99.90
16408;DHT22;8313;49.894;8.084;2023-03-11T15:49:20;6.40;99.90
16408;DHT22;8313;49.894;8.084;2023-03-11T15:51:46;6.40;99.90
16408;DHT22;8313;49.894;8.084;2023-03-11T15:54:12;6.50;99.90
16408;DHT22;8313;49.894;8.084;2023-03-11T15:56:38;6.50;99.90
16408;DHT22;8313;49.894;8.084;2023-03-11T15:59:04;6.50;99.90
16408;DHT22;8313;49.894;8.084;2023-03-11T16:01:30;6.60;99.90
16408;DHT22;8313;49.894;8.084;2023-03-11T16:03:56;6.60;99.90
16408;DHT22;8313;49.894;8.084;2023-03-11T16:06:22;6.60;99.90
16408;DHT22;8313;49.894;8.084;2023-03-11T16:08:48;6.50;99.90
16408;DHT22;8313;49.894;8.084;2023-03-11T16:11:14;6.40;99.90
16408;DHT22;8313;49.894;8.084;2023-03-11T16:13:40;6.40;99.90
16408;DHT22;8313;49.894;8.084;2023-03-11T16:16:18;6.50;99.90
16408;DHT22;8313;49.894;8.084;2023-03-11T16:18:44;6.50;99.90
16408;DHT22;8313;49.894;8.084;2023-03-11T16:21:16;6.60;99.90
16408;DHT22;8313;49.894;8.084;2023-03-11T16:23:42;6.60;99.90
16408;DHT22;8313;49.894;8.084;2023-03-11T16:26:10;6.60;99.90
16408;DHT22;8313;49.894;8.084;2023-03-11T16:28:37;6.60;99.90
16408;DHT22;8313;49.894;8.084;2023-03-11T16:31:03;6.60;99.90
16408;DHT22;8313;49.894;8.084;2023-03-11T16:33:28;6.60;99.90
16408;DHT22;8313;49.894;8.084;2023-03-11T16:35:54;6.60;99.90
16408;DHT22;8313;49.894;8.084;2023-03-11T16:38:20;6.60;99.90
16408;DHT22;8313;49.894;8.084;2023-03-11T16:41:01;6.70;99.90
16408;DHT22;8313;49.894;8.084;2023-03-11T16:43:28;6.60;99.90
16408;DHT22;8313;49.894;8.084;2023-03-11T16:45:54;6.60;99.90
16408;DHT22;8313;49.894;8.084;2023-03-11T16:48:21;6.60;99.90
16408;DHT22;8313;49.894;8.084;2023-03-11T16:50:46;6.50;99.90
16408;DHT22;8313;49.894;8.084;2023-03-11T16:53:12;6.60;99.90
16408;DHT22;8313;49.894;8.084;2023-03-11T16:55:44;6.60;99.90
16408;DHT22;8313;49.894;8.084;2023-03-11T16:58:10;6.60;99.90
16408;DHT22;8313;49.894;8.084;2023-03-11T17:00:36;6.60;99.90
16408;DHT22;8313;49.894;8.084;2023-03-11T17:03:02;6.60;99.90
16408;DHT22;8313;49.894;8.084;2023-03-11T17:05:28;6.60;99.90
16408;DHT22;8313;49.894;8.084;2023-03-11T17:07:56;6.50;99.90
16408;DHT22;8313;49.894;8.084;2023-03-11T17:10:26;6.50;99.90
16408;DHT22;8313;49.894;8.084;2023-03-11T17:12:53;6.50;99.90
16408;DHT22;8313;49.894;8.084;2023-03-11T17:15:19;6.50;99.90
16408;DHT22;8313;49.894;8.084;2023-03-11T17:17:45;6.50;99.90
16408;DHT22;8313;49.894;8.084;2023-03-11T17:20:11;6.50;99.90
16408;DHT22;8313;49.894;8.084;2023-03-11T17:22:37;6.50;99.90
16408;DHT22;8313;49.894;8.084;2023-03-11T17:25:03;6.40;99.90
16408;DHT22;8313;49.894;8.084;2023-03-11T17:27:29;6.40;99.90
16408;DHT22;8313;49.894;8.084;2023-03-11T17:30:01;6.30;99.90
16408;DHT22;8313;49.894;8.084;2023-03-11T17:32:27;6.30;99.90
16408;DHT22;8313;49.894;8.084;2023-03-11T17:34:53;6.30;99.90
16408;DHT22;8313;49.894;8.084;2023-03-11T17:37:19;6.30;99.90
16408;DHT22;8313;49.894;8.084;2023-03-11T17:39:45;6.30;99.90
16408;DHT22;8313;49.894;8.084;2023-03-11T17:42:10;6.20;99.90
16408;DHT22;8313;49.894;8.084;2023-03-11T17:44:36;6.20;99.90